sensor_id;sensor_type;location;lat;lon;timestamp;temperature;humidity
15937;DHT22;9163;48.818;8.976;2023-09-12T00:01:21;19.50;99.90
15937;DHT22;9163;48.818;8.976;2023-09-12T00:03:49;19.50;99.90
15937;DHT22;9163;48.818;8.976;2023-09-12T00:06:17;19.50;99.90
15937;DHT22;9163;48.818;8.976;2023-09-12T00:08:44;19.50;99.90
15937;DHT22;9163;48.818;8.976;2023-09-12T00:11:11;19.50;99.90
15937;DHT22;9163;48.818;8.976;2023-09-12T00:13:40;19.50;99.90
15937;DHT22;9163;48.818;8.976;2023-09-12T00:16:08;19.40;99.90
15937;DHT22;9163;48.818;8.976;2023-09-12T00:18:35;19.40;99.90
15937;DHT22;9163;48.818;8.976;2023-09-12T00:21:04;19.30;99.90
15937;DHT22;9163;48.818;8.976;2023-09-12T00:23:31;19.30;99.90
15937;DHT22;9163;48.818;8.976;2023-09-12T00:25:58;19.30;99.90
15937;DHT22;9163;48.818;8.976;2023-09-12T00:28:26;19.20;99.90
15937;DHT22;9163;48.818;8.976;2023-09-12T00:30:53;19.20;99.90
15937;DHT22;9163;48.818;8.976;2023-09-12T00:33:20;19.20;99.90
15937;DHT22;9163;48.818;8.976;2023-09-12T00:35:47;19.10;99.90
15937;DHT22;9163;48.818;8.976;2023-09-12T00:38:16;19.10;99.90
15937;DHT22;9163;48.818;8.976;2023-09-12T00:40:43;19.00;99.90
15937;DHT22;9163;48.818;8.976;2023-09-12T00:43:10;19.10;99.90
15937;DHT22;9163;48.818;8.976;2023-09-12T00:45:38;19.10;99.90
15937;DHT22;9163;48.818;8.976;2023-09-12T00:48:06;19.10;99.90
15937;DHT22;9163;48.818;8.976;2023-09-12T00:50:34;19.00;99.90
15937;DHT22;9163;48.818;8.976;2023-09-12T00:53:03;19.00;99.90
15937;DHT22;9163;48.818;8.976;2023-09-12T00:55:34;19.10;99.90
15937;DHT22;9163;48.818;8.976;2023-09-12T00:58:03;19.00;99.90
15937;DHT22;9163;48.818;8.976;2023-09-12T01:00:30;19.00;99.90
15937;DHT22;9163;48.818;8.976;2023-09-12T01:02:58;19.00;99.90
15937;DHT22;9163;48.818;8.976;2023-09-12T01:05:26;19.00;99.90
15937;DHT22;9163;48.818;8.976;2023-09-12T01:07:55;18.90;99.90
15937;DHT22;9163;48.818;8.976;2023-09-12T01:10:22;18.90;99.90
15937;DHT22;9163;48.818;8.976;2023-09-12T01:12:52;19.00;99.90
15937;DHT22;9163;48.818;8.976;2023-09-12T01:15:19;19.00;99.90
15937;DHT22;9163;48.818;8.976;2023-09-12T01:17:46;19.00;99.90
15937;DHT22;9163;48.818;8.976;2023-09-12T01:20:17;18.90;99.90
15937;DHT22;9163;48.818;8.976;2023-09-12T01:23:02;18.90;99.90
15937;DHT22;9163;48.818;8.976;2023-09-12T01:25:52;18.80;99.90
15937;DHT22;9163;48.818;8.976;2023-09-12T01:28:30;18.80;99.90
15937;DHT22;9163;48.818;8.976;2023-09-12T01:30:58;18.80;99.90
15937;DHT22;9163;48.818;8.976;2023-09-12T01:33:28;18.70;99.90
15937;DHT22;9163;48.818;8.976;2023-09-12T01:35:56;18.70;99.90
15937;DHT22;9163;48.818;8.976;2023-09-12T01:38:23;18.70;99.90
15937;DHT22;9163;48.818;8.976;2023-09-12T01:40:51;18.70;99.90
15937;DHT22;9163;48.818;8.976;2023-09-12T01:43:22;18.70;99.90
15937;DHT22;9163;48.818;8.976;2023-09-12T01:45:54;18.70;99.90
15937;DHT22;9163;48.818;8.976;2023-09-12T01:48:24;18.80;99.90
15937;DHT22;9163;48.818;8.976;2023-09-12T01:50:54;18.70;99.90
15937;DHT22;9163;48.818;8.976;2023-09-12T01:53:21;18.60;99.90
15937;DHT22;9163;48.818;8.976;2023-09-12T01:55:48;18.70;99.90
15937;DHT22;9163;48.818;8.976;2023-09-12T01:58:16;18.70;99.90
15937;DHT22;9163;48.818;8.976;2023-09-12T02:00:43;18.70;99.90
15937;DHT22;9163;48.818;8.976;2023-09-12T02:03:12;18.70;99.90
15937;DHT22;9163;48.818;8.976;2023-09-12T02:05:40;18.70;99.90
15937;DHT22;9163;48.818;8.976;2023-09-12T02:08:07;18.60;99.90
15937;DHT22;9163;48.818;8.976;2023-09-12T02:10:35;18.70;99.90
15937;DHT22;9163;48.818;8.976;2023-09-12T02:13:02;18.60;99.90
15937;DHT22;9163;48.818;8.976;2023-09-12T02:15:29;18.60;99.90
15937;DHT22;9163;48.818;8.976;2023-09-12T02:17:56;18.70;99.90
15937;DHT22;9163;48.818;8.976;2023-09-12T02:20:25;18.70;99.90
15937;DHT22;9163;48.818;8.976;2023-09-12T02:22:52;18.70;99.90
15937;DHT22;9163;48.818;8.976;2023-09-12T02:25:19;18.60;99.90
15937;DHT22;9163;48.818;8.976;2023-09-12T02:27:47;18.60;99.90
15937;DHT22;9163;48.818;8.976;2023-09-12T02:30:14;18.50;99.90
15937;DHT22;9163;48.818;8.976;2023-09-12T02:32:42;18.60;99.90
15937;DHT22;9163;48.818;8.976;2023-09-12T02:35:09;18.60;99.90
15937;DHT22;9163;48.818;8.976;2023-09-12T02:37:37;18.50;99.90
15937;DHT22;9163;48.818;8.976;2023-09-12T02:40:06;18.50;99.90
15937;DHT22;9163;48.818;8.976;2023-09-12T02:42:34;18.40;99.90
15937;DHT22;9163;48.818;8.976;2023-09-12T02:45:01;18.30;99.90
15937;DHT22;9163;48.818;8.976;2023-09-12T02:47:28;18.30;99.90
15937;DHT22;9163;48.818;8.976;2023-09-12T02:49:55;18.30;99.90
15937;DHT22;9163;48.818;8.976;2023-09-12T02:52:22;18.20;99.90
15937;DHT22;9163;48.818;8.976;2023-09-12T02:54:51;18.20;99.90
15937;DHT22;9163;48.818;8.976;2023-09-12T02:57:18;18.30;99.90
15937;DHT22;9163;48.818;8.976;2023-09-12T02:59:45;18.30;99.90
15937;DHT22;9163;48.818;8.976;2023-09-12T03:02:13;18.30;99.90
15937;DHT22;9163;48.818;8.976;2023-09-12T03:04:40;18.30;99.90
15937;DHT22;9163;48.818;8.976;2023-09-12T03:07:07;18.30;99.90
15937;DHT22;9163;48.818;8.976;2023-09-12T03:09:35;18.30;99.90
15937;DHT22;9163;48.818;8.976;2023-09-12T03:12:05;18.30;99.90
15937;DHT22;9163;48.818;8.976;2023-09-12T03:14:32;18.20;99.90
15937;DHT22;9163;48.818;8.976;2023-09-12T03:16:59;18.20;99.90
15937;DHT22;9163;48.818;8.976;2023-09-12T03:19:27;18.20;99.90
15937;DHT22;9163;48.818;8.976;2023-09-12T03:21:56;18.10;99.90
15937;DHT22;9163;48.818;8.976;2023-09-12T03:24:23;18.10;99.90
15937;DHT22;9163;48.818;8.976;2023-09-12T03:26:51;18.10;99.90
15937;DHT22;9163;48.818;8.976;2023-09-12T03:29:20;18.10;99.90
15937;DHT22;9163;48.818;8.976;2023-09-12T03:31:47;18.20;99.90
15937;DHT22;9163;48.818;8.976;2023-09-12T03:34:14;18.20;99.90
15937;DHT22;9163;48.818;8.976;2023-09-12T03:36:41;18.10;99.90
15937;DHT22;9163;48.818;8.976;2023-09-12T03:39:08;18.10;99.90
15937;DHT22;9163;48.818;8.976;2023-09-12T03:41:39;17.90;99.90
15937;DHT22;9163;48.818;8.976;2023-09-12T03:44:06;17.90;99.90
15937;DHT22;9163;48.818;8.976;2023-09-12T03:46:35;17.90;99.90
15937;DHT22;9163;48.818;8.976;2023-09-12T03:49:02;18.00;99.90
15937;DHT22;9163;48.818;8.976;2023-09-12T03:51:30;18.00;99.90
15937;DHT22;9163;48.818;8.976;2023-09-12T03:53:57;18.00;99.90
15937;DHT22;9163;48.818;8.976;2023-09-12T03:56:24;18.00;99.90
15937;DHT22;9163;48.818;8.976;2023-09-12T03:58:52;17.90;99.90
15937;DHT22;9163;48.818;8.976;2023-09-12T04:01:22;18.00;99.90
15937;DHT22;9163;48.818;8.976;2023-09-12T04:03:51;17.90;99.90
15937;DHT22;9163;48.818;8.976;2023-09-12T04:06:18;18.10;99.90
15937;DHT22;9163;48.818;8.976;2023-09-12T04:08:45;18.10;99.90
15937;DHT22;9163;48.818;8.976;2023-09-12T04:11:12;18.10;99.90
15937;DHT22;9163;48.818;8.976;2023-09-12T04:13:39;18.00;99.90
15937;DHT22;9163;48.818;8.976;2023-09-12T04:16:07;18.00;99.90
15937;DHT22;9163;48.818;8.976;2023-09-12T04:18:34;18.00;99.90
15937;DHT22;9163;48.818;8.976;2023-09-12T04:21:02;18.00;99.90
15937;DHT22;9163;48.818;8.976;2023-09-12T04:23:30;18.00;99.90
15937;DHT22;9163;48.818;8.976;2023-09-12T04:25:57;18.00;99.90
15937;DHT22;9163;48.818;8.976;2023-09-12T04:28:26;18.00;99.90
15937;DHT22;9163;48.818;8.976;2023-09-12T04:31:01;18.10;99.90
15937;DHT22;9163;48.818;8.976;2023-09-12T04:33:28;18.10;99.90
15937;DHT22;9163;48.818;8.976;2023-09-12T04:35:57;18.10;99.90
15937;DHT22;9163;48.818;8.976;2023-09-12T04:38:27;18.20;99.90
15937;DHT22;9163;48.818;8.976;2023-09-12T04:40:54;18.20;99.90
15937;DHT22;9163;48.818;8.976;2023-09-12T04:43:21;18.30;99.90
15937;DHT22;9163;48.818;8.976;2023-09-12T04:45:49;18.30;99.90
15937;DHT22;9163;48.818;8.976;2023-09-12T04:48:16;18.30;99.90
15937;DHT22;9163;48.818;8.976;2023-09-12T04:50:44;18.40;99.90
15937;DHT22;9163;48.818;8.976;2023-09-12T04:53:11;18.40;99.90
15937;DHT22;9163;48.818;8.976;2023-09-12T04:55:40;18.40;99.90
15937;DHT22;9163;48.818;8.976;2023-09-12T04:58:07;18.40;99.90
15937;DHT22;9163;48.818;8.976;2023-09-12T05:00:34;18.40;99.90
15937;DHT22;9163;48.818;8.976;2023-09-12T05:03:02;18.40;99.90
15937;DHT22;9163;48.818;8.976;2023-09-12T05:05:29;18.50;99.90
15937;DHT22;9163;48.818;8.976;2023-09-12T05:07:57;18.50;99.90
15937;DHT22;9163;48.818;8.976;2023-09-12T05:10:24;18.50;99.90
15937;DHT22;9163;48.818;8.976;2023-09-12T05:12:53;18.60;99.90
15937;DHT22;9163;48.818;8.976;2023-09-12T05:15:20;18.60;99.90
15937;DHT22;9163;48.818;8.976;2023-09-12T05:17:47;18.60;99.90
15937;DHT22;9163;48.818;8.976;2023-09-12T05:20:15;18.70;99.90
15937;DHT22;9163;48.818;8.976;2023-09-12T05:22:42;18.70;99.90
15937;DHT22;9163;48.818;8.976;2023-09-12T05:25:09;18.80;99.90
15937;DHT22;9163;48.818;8.976;2023-09-12T05:27:36;18.80;99.90
15937;DHT22;9163;48.818;8.976;2023-09-12T05:30:06;18.90;99.90
15937;DHT22;9163;48.818;8.976;2023-09-12T05:32:34;18.90;99.90
15937;DHT22;9163;48.818;8.976;2023-09-12T05:35:02;19.00;99.90
15937;DHT22;9163;48.818;8.976;2023-09-12T05:37:30;19.00;99.90
15937;DHT22;9163;48.818;8.976;2023-09-12T05:39:57;18.90;99.90
15937;DHT22;9163;48.818;8.976;2023-09-12T05:42:24;18.90;99.90
15937;DHT22;9163;48.818;8.976;2023-09-12T05:44:52;18.90;99.90
15937;DHT22;9163;48.818;8.976;2023-09-12T05:47:21;19.00;99.90
15937;DHT22;9163;48.818;8.976;2023-09-12T05:49:49;19.00;99.90
15937;DHT22;9163;48.818;8.976;2023-09-12T05:52:17;19.10;99.90
15937;DHT22;9163;48.818;8.976;2023-09-12T05:54:44;19.20;99.90
15937;DHT22;9163;48.818;8.976;2023-09-12T05:57:11;19.20;99.90
15937;DHT22;9163;48.818;8.976;2023-09-12T05:59:39;19.20;99.90
15937;DHT22;9163;48.818;8.976;2023-09-12T06:02:06;19.20;99.90
15937;DHT22;9163;48.818;8.976;2023-09-12T06:04:36;19.10;99.90
15937;DHT22;9163;48.818;8.976;2023-09-12T06:07:04;19.20;99.90
15937;DHT22;9163;48.818;8.976;2023-09-12T06:09:31;19.20;99.90
15937;DHT22;9163;48.818;8.976;2023-09-12T06:11:58;19.30;99.90
15937;DHT22;9163;48.818;8.976;2023-09-12T06:14:26;19.40;99.90
15937;DHT22;9163;48.818;8.976;2023-09-12T06:16:53;19.40;99.90
15937;DHT22;9163;48.818;8.976;2023-09-12T06:19:20;19.60;99.90
15937;DHT22;9163;48.818;8.976;2023-09-12T06:21:49;19.60;99.90
15937;DHT22;9163;48.818;8.976;2023-09-12T06:24:18;19.80;99.90
15937;DHT22;9163;48.818;8.976;2023-09-12T06:26:47;19.80;99.90
15937;DHT22;9163;48.818;8.976;2023-09-12T06:29:14;19.90;99.90
15937;DHT22;9163;48.818;8.976;2023-09-12T06:31:42;20.00;99.90
15937;DHT22;9163;48.818;8.976;2023-09-12T06:34:10;20.10;99.90
15937;DHT22;9163;48.818;8.976;2023-09-12T06:36:38;20.30;99.90
15937;DHT22;9163;48.818;8.976;2023-09-12T06:39:08;20.30;99.90
15937;DHT22;9163;48.818;8.976;2023-09-12T06:41:35;20.50;99.90
15937;DHT22;9163;48.818;8.976;2023-09-12T06:44:03;20.50;96.30
15937;DHT22;9163;48.818;8.976;2023-09-12T06:46:31;20.60;92.80
15937;DHT22;9163;48.818;8.976;2023-09-12T06:49:01;20.70;90.60
15937;DHT22;9163;48.818;8.976;2023-09-12T06:51:29;20.80;83.50
15937;DHT22;9163;48.818;8.976;2023-09-12T06:53:56;20.70;79.00
15937;DHT22;9163;48.818;8.976;2023-09-12T06:56:25;20.90;80.60
15937;DHT22;9163;48.818;8.976;2023-09-12T06:58:53;20.90;72.50
15937;DHT22;9163;48.818;8.976;2023-09-12T07:01:21;21.00;69.20
15937;DHT22;9163;48.818;8.976;2023-09-12T07:03:48;21.00;64.40
15937;DHT22;9163;48.818;8.976;2023-09-12T07:06:19;21.30;65.50
15937;DHT22;9163;48.818;8.976;2023-09-12T07:08:46;21.50;50.50
15937;DHT22;9163;48.818;8.976;2023-09-12T07:11:14;21.80;48.10
15937;DHT22;9163;48.818;8.976;2023-09-12T07:13:42;22.20;37.00
15937;DHT22;9163;48.818;8.976;2023-09-12T07:16:10;22.40;17.80
15937;DHT22;9163;48.818;8.976;2023-09-12T07:18:37;22.50;11.30
15937;DHT22;9163;48.818;8.976;2023-09-12T07:21:05;22.40;12.40
15937;DHT22;9163;48.818;8.976;2023-09-12T07:23:33;22.30;17.40
15937;DHT22;9163;48.818;8.976;2023-09-12T07:26:00;22.20;26.00
15937;DHT22;9163;48.818;8.976;2023-09-12T07:28:29;22.30;29.40
15937;DHT22;9163;48.818;8.976;2023-09-12T07:30:58;22.50;15.40
15937;DHT22;9163;48.818;8.976;2023-09-12T07:33:25;22.90;10.30
15937;DHT22;9163;48.818;8.976;2023-09-12T07:35:53;23.00;1.00
15937;DHT22;9163;48.818;8.976;2023-09-12T07:38:20;23.10;1.00
15937;DHT22;9163;48.818;8.976;2023-09-12T07:40:48;23.10;1.00
15937;DHT22;9163;48.818;8.976;2023-09-12T07:43:15;23.30;1.00
15937;DHT22;9163;48.818;8.976;2023-09-12T07:45:42;23.50;1.00
15937;DHT22;9163;48.818;8.976;2023-09-12T07:48:11;23.70;1.00
15937;DHT22;9163;48.818;8.976;2023-09-12T07:50:38;24.10;1.00
15937;DHT22;9163;48.818;8.976;2023-09-12T07:53:05;23.80;1.00
15937;DHT22;9163;48.818;8.976;2023-09-12T07:55:36;23.80;1.00
15937;DHT22;9163;48.818;8.976;2023-09-12T07:58:12;23.80;1.00
15937;DHT22;9163;48.818;8.976;2023-09-12T08:00:39;23.40;1.00
15937;DHT22;9163;48.818;8.976;2023-09-12T08:03:06;23.40;1.00
15937;DHT22;9163;48.818;8.976;2023-09-12T08:05:35;23.70;1.00
15937;DHT22;9163;48.818;8.976;2023-09-12T08:08:03;24.00;1.00
15937;DHT22;9163;48.818;8.976;2023-09-12T08:10:30;24.10;1.00
15937;DHT22;9163;48.818;8.976;2023-09-12T08:12:58;24.10;1.00
15937;DHT22;9163;48.818;8.976;2023-09-12T08:15:25;23.90;1.00
15937;DHT22;9163;48.818;8.976;2023-09-12T08:17:53;23.70;1.00
15937;DHT22;9163;48.818;8.976;2023-09-12T08:20:21;23.60;1.00
15937;DHT22;9163;48.818;8.976;2023-09-12T08:22:49;23.80;1.00
15937;DHT22;9163;48.818;8.976;2023-09-12T08:25:17;23.70;1.00
15937;DHT22;9163;48.818;8.976;2023-09-12T08:27:44;23.60;1.00
15937;DHT22;9163;48.818;8.976;2023-09-12T08:30:12;24.00;1.00
15937;DHT22;9163;48.818;8.976;2023-09-12T08:32:40;24.50;1.00
15937;DHT22;9163;48.818;8.976;2023-09-12T08:35:10;25.00;1.00
15937;DHT22;9163;48.818;8.976;2023-09-12T08:37:38;25.10;1.00
15937;DHT22;9163;48.818;8.976;2023-09-12T08:40:09;25.40;1.00
15937;DHT22;9163;48.818;8.976;2023-09-12T08:42:39;26.10;1.00
15937;DHT22;9163;48.818;8.976;2023-09-12T08:45:12;26.80;1.00
15937;DHT22;9163;48.818;8.976;2023-09-12T08:47:42;27.30;1.00
15937;DHT22;9163;48.818;8.976;2023-09-12T08:50:10;27.60;1.00
15937;DHT22;9163;48.818;8.976;2023-09-12T08:52:40;27.60;1.00
15937;DHT22;9163;48.818;8.976;2023-09-12T08:55:09;27.90;1.00
15937;DHT22;9163;48.818;8.976;2023-09-12T08:57:38;27.90;1.00
15937;DHT22;9163;48.818;8.976;2023-09-12T09:00:08;27.80;1.00
15937;DHT22;9163;48.818;8.976;2023-09-12T09:02:36;28.10;1.00
15937;DHT22;9163;48.818;8.976;2023-09-12T09:05:06;28.40;1.00
15937;DHT22;9163;48.818;8.976;2023-09-12T09:07:35;28.60;1.00
15937;DHT22;9163;48.818;8.976;2023-09-12T09:10:05;28.30;1.00
15937;DHT22;9163;48.818;8.976;2023-09-12T09:12:35;29.20;1.00
15937;DHT22;9163;48.818;8.976;2023-09-12T09:15:20;29.00;1.00
15937;DHT22;9163;48.818;8.976;2023-09-12T09:17:48;29.00;1.00
15937;DHT22;9163;48.818;8.976;2023-09-12T09:20:26;29.50;1.00
15937;DHT22;9163;48.818;8.976;2023-09-12T09:22:57;30.00;1.00
15937;DHT22;9163;48.818;8.976;2023-09-12T09:25:24;30.40;1.00
15937;DHT22;9163;48.818;8.976;2023-09-12T09:27:53;30.70;1.00
15937;DHT22;9163;48.818;8.976;2023-09-12T09:30:39;31.00;1.00
15937;DHT22;9163;48.818;8.976;2023-09-12T09:33:07;31.20;1.00
15937;DHT22;9163;48.818;8.976;2023-09-12T09:35:35;31.40;1.00
15937;DHT22;9163;48.818;8.976;2023-09-12T09:38:03;31.40;1.00
15937;DHT22;9163;48.818;8.976;2023-09-12T09:40:32;31.50;1.00
15937;DHT22;9163;48.818;8.976;2023-09-12T09:43:01;31.40;99.90
15937;DHT22;9163;48.818;8.976;2023-09-12T09:45:30;31.30;99.90
15937;DHT22;9163;48.818;8.976;2023-09-12T09:47:58;31.80;99.90
15937;DHT22;9163;48.818;8.976;2023-09-12T09:50:26;31.80;99.90
15937;DHT22;9163;48.818;8.976;2023-09-12T09:52:55;32.00;99.90
15937;DHT22;9163;48.818;8.976;2023-09-12T09:55:23;32.10;1.00
15937;DHT22;9163;48.818;8.976;2023-09-12T09:57:51;32.40;1.00
15937;DHT22;9163;48.818;8.976;2023-09-12T10:00:22;32.40;1.00
15937;DHT22;9163;48.818;8.976;2023-09-12T10:02:50;32.40;99.90
15937;DHT22;9163;48.818;8.976;2023-09-12T10:05:19;32.90;99.90
15937;DHT22;9163;48.818;8.976;2023-09-12T10:07:49;33.70;99.90
15937;DHT22;9163;48.818;8.976;2023-09-12T10:10:18;34.10;99.90
15937;DHT22;9163;48.818;8.976;2023-09-12T10:12:50;34.80;99.90
15937;DHT22;9163;48.818;8.976;2023-09-12T10:15:20;35.40;99.90
15937;DHT22;9163;48.818;8.976;2023-09-12T10:17:56;35.50;99.90
15937;DHT22;9163;48.818;8.976;2023-09-12T10:20:25;36.00;83.40
15937;DHT22;9163;48.818;8.976;2023-09-12T10:23:01;36.40;75.90
15937;DHT22;9163;48.818;8.976;2023-09-12T10:25:35;36.40;1.00
15937;DHT22;9163;48.818;8.976;2023-09-12T10:28:04;36.50;1.00
15937;DHT22;9163;48.818;8.976;2023-09-12T10:30:34;36.30;99.90
15937;DHT22;9163;48.818;8.976;2023-09-12T10:33:02;36.50;1.00
15937;DHT22;9163;48.818;8.976;2023-09-12T10:35:31;36.80;1.00
15937;DHT22;9163;48.818;8.976;2023-09-12T10:38:00;37.00;1.00
15937;DHT22;9163;48.818;8.976;2023-09-12T10:40:31;37.20;1.00
15937;DHT22;9163;48.818;8.976;2023-09-12T10:43:00;36.90;1.00
15937;DHT22;9163;48.818;8.976;2023-09-12T10:45:31;37.40;1.00
15937;DHT22;9163;48.818;8.976;2023-09-12T10:48:00;37.60;1.00
15937;DHT22;9163;48.818;8.976;2023-09-12T10:50:28;37.30;1.00
15937;DHT22;9163;48.818;8.976;2023-09-12T10:53:07;37.20;1.00
15937;DHT22;9163;48.818;8.976;2023-09-12T10:55:34;37.80;1.00
15937;DHT22;9163;48.818;8.976;2023-09-12T10:58:03;38.20;1.00
15937;DHT22;9163;48.818;8.976;2023-09-12T11:00:31;38.00;1.00
15937;DHT22;9163;48.818;8.976;2023-09-12T11:03:35;37.20;1.00
15937;DHT22;9163;48.818;8.976;2023-09-12T11:05:57;36.80;1.00
15937;DHT22;9163;48.818;8.976;2023-09-12T11:08:25;37.50;1.00
15937;DHT22;9163;48.818;8.976;2023-09-12T11:11:18;37.90;1.00
15937;DHT22;9163;48.818;8.976;2023-09-12T11:13:46;38.30;1.00
15937;DHT22;9163;48.818;8.976;2023-09-12T11:16:15;38.90;1.00
15937;DHT22;9163;48.818;8.976;2023-09-12T11:19:13;39.00;1.00
15937;DHT22;9163;48.818;8.976;2023-09-12T11:21:41;39.00;99.90
15937;DHT22;9163;48.818;8.976;2023-09-12T11:24:09;39.20;1.00
15937;DHT22;9163;48.818;8.976;2023-09-12T11:26:55;39.70;99.90
15937;DHT22;9163;48.818;8.976;2023-09-12T11:29:27;39.70;99.90
15937;DHT22;9163;48.818;8.976;2023-09-12T11:31:55;39.80;1.00
15937;DHT22;9163;48.818;8.976;2023-09-12T11:34:29;40.00;1.00
15937;DHT22;9163;48.818;8.976;2023-09-12T11:36:59;40.30;1.00
15937;DHT22;9163;48.818;8.976;2023-09-12T11:39:29;40.80;1.00
15937;DHT22;9163;48.818;8.976;2023-09-12T11:41:57;41.40;1.00
15937;DHT22;9163;48.818;8.976;2023-09-12T11:44:25;42.20;1.00
15937;DHT22;9163;48.818;8.976;2023-09-12T11:46:53;42.90;1.00
15937;DHT22;9163;48.818;8.976;2023-09-12T11:49:20;43.50;1.00
15937;DHT22;9163;48.818;8.976;2023-09-12T11:51:50;44.10;99.90
15937;DHT22;9163;48.818;8.976;2023-09-12T11:54:19;44.70;1.00
15937;DHT22;9163;48.818;8.976;2023-09-12T11:56:47;45.10;1.00
15937;DHT22;9163;48.818;8.976;2023-09-12T11:59:15;44.90;99.90
15937;DHT22;9163;48.818;8.976;2023-09-12T12:01:45;45.30;1.00
15937;DHT22;9163;48.818;8.976;2023-09-12T12:04:13;45.20;1.00
15937;DHT22;9163;48.818;8.976;2023-09-12T12:06:40;45.30;1.00
15937;DHT22;9163;48.818;8.976;2023-09-12T12:09:10;45.20;1.00
15937;DHT22;9163;48.818;8.976;2023-09-12T12:11:37;44.80;1.00
15937;DHT22;9163;48.818;8.976;2023-09-12T12:14:12;44.50;1.00
15937;DHT22;9163;48.818;8.976;2023-09-12T12:16:41;44.00;1.00
15937;DHT22;9163;48.818;8.976;2023-09-12T12:19:08;44.40;43.90
15937;DHT22;9163;48.818;8.976;2023-09-12T12:21:37;43.60;99.90
15937;DHT22;9163;48.818;8.976;2023-09-12T12:24:07;43.30;1.00
15937;DHT22;9163;48.818;8.976;2023-09-12T12:26:36;42.60;1.00
15937;DHT22;9163;48.818;8.976;2023-09-12T12:29:04;42.50;1.00
15937;DHT22;9163;48.818;8.976;2023-09-12T12:31:31;42.40;1.00
15937;DHT22;9163;48.818;8.976;2023-09-12T12:33:59;41.60;1.00
15937;DHT22;9163;48.818;8.976;2023-09-12T12:36:26;41.30;1.00
15937;DHT22;9163;48.818;8.976;2023-09-12T12:38:54;41.60;99.90
15937;DHT22;9163;48.818;8.976;2023-09-12T12:41:25;42.10;1.00
15937;DHT22;9163;48.818;8.976;2023-09-12T12:43:56;42.40;99.90
15937;DHT22;9163;48.818;8.976;2023-09-12T12:46:25;42.60;38.60
15937;DHT22;9163;48.818;8.976;2023-09-12T12:48:52;42.50;1.00
15937;DHT22;9163;48.818;8.976;2023-09-12T12:51:21;42.50;1.00
15937;DHT22;9163;48.818;8.976;2023-09-12T12:53:51;42.70;1.00
15937;DHT22;9163;48.818;8.976;2023-09-12T12:56:20;42.10;1.00
15937;DHT22;9163;48.818;8.976;2023-09-12T12:58:49;40.90;1.00
15937;DHT22;9163;48.818;8.976;2023-09-12T13:01:18;40.20;1.00
15937;DHT22;9163;48.818;8.976;2023-09-12T13:03:45;40.00;1.00
15937;DHT22;9163;48.818;8.976;2023-09-12T13:06:13;40.10;1.00
15937;DHT22;9163;48.818;8.976;2023-09-12T13:08:41;39.80;1.00
15937;DHT22;9163;48.818;8.976;2023-09-12T13:11:09;40.00;1.00
15937;DHT22;9163;48.818;8.976;2023-09-12T13:13:37;40.30;1.00
15937;DHT22;9163;48.818;8.976;2023-09-12T13:16:05;40.30;1.00
15937;DHT22;9163;48.818;8.976;2023-09-12T13:18:34;40.10;1.00
15937;DHT22;9163;48.818;8.976;2023-09-12T13:21:01;40.30;1.00
15937;DHT22;9163;48.818;8.976;2023-09-12T13:23:29;40.30;1.00
15937;DHT22;9163;48.818;8.976;2023-09-12T13:25:57;40.40;1.00
15937;DHT22;9163;48.818;8.976;2023-09-12T13:28:24;40.40;1.00
15937;DHT22;9163;48.818;8.976;2023-09-12T13:30:52;40.40;1.00
15937;DHT22;9163;48.818;8.976;2023-09-12T13:33:19;40.10;1.00
15937;DHT22;9163;48.818;8.976;2023-09-12T13:35:49;39.80;1.00
15937;DHT22;9163;48.818;8.976;2023-09-12T13:38:16;39.70;1.00
15937;DHT22;9163;48.818;8.976;2023-09-12T13:40:45;39.90;1.00
15937;DHT22;9163;48.818;8.976;2023-09-12T13:43:13;39.80;1.00
15937;DHT22;9163;48.818;8.976;2023-09-12T13:45:40;39.60;1.00
15937;DHT22;9163;48.818;8.976;2023-09-12T13:48:08;39.40;1.00
15937;DHT22;9163;48.818;8.976;2023-09-12T13:50:35;39.40;1.00
15937;DHT22;9163;48.818;8.976;2023-09-12T13:53:04;39.60;1.00
15937;DHT22;9163;48.818;8.976;2023-09-12T13:55:32;39.50;1.00
15937;DHT22;9163;48.818;8.976;2023-09-12T13:58:01;39.30;1.00
15937;DHT22;9163;48.818;8.976;2023-09-12T14:00:29;38.70;1.00
15937;DHT22;9163;48.818;8.976;2023-09-12T14:02:56;38.70;99.90
15937;DHT22;9163;48.818;8.976;2023-09-12T14:05:24;38.80;1.00
15937;DHT22;9163;48.818;8.976;2023-09-12T14:07:52;38.80;1.00
15937;DHT22;9163;48.818;8.976;2023-09-12T14:10:20;39.00;1.00
15937;DHT22;9163;48.818;8.976;2023-09-12T14:12:48;38.90;1.00
15937;DHT22;9163;48.818;8.976;2023-09-12T14:15:15;39.10;1.00
15937;DHT22;9163;48.818;8.976;2023-09-12T14:17:42;38.90;1.00
15937;DHT22;9163;48.818;8.976;2023-09-12T14:20:10;39.10;1.00
15937;DHT22;9163;48.818;8.976;2023-09-12T14:22:41;39.20;1.00
15937;DHT22;9163;48.818;8.976;2023-09-12T14:25:09;39.20;1.00
15937;DHT22;9163;48.818;8.976;2023-09-12T14:27:43;39.00;1.00
15937;DHT22;9163;48.818;8.976;2023-09-12T14:30:11;39.10;1.00
15937;DHT22;9163;48.818;8.976;2023-09-12T14:32:39;38.90;1.00
15937;DHT22;9163;48.818;8.976;2023-09-12T14:35:07;38.80;1.00
15937;DHT22;9163;48.818;8.976;2023-09-12T14:37:35;38.80;1.00
15937;DHT22;9163;48.818;8.976;2023-09-12T14:40:04;38.80;1.00
15937;DHT22;9163;48.818;8.976;2023-09-12T14:42:31;38.40;1.00
15937;DHT22;9163;48.818;8.976;2023-09-12T14:45:00;38.10;1.00
15937;DHT22;9163;48.818;8.976;2023-09-12T14:47:27;37.80;1.00
15937;DHT22;9163;48.818;8.976;2023-09-12T14:49:56;37.60;99.90
15937;DHT22;9163;48.818;8.976;2023-09-12T14:52:24;37.60;1.00
15937;DHT22;9163;48.818;8.976;2023-09-12T14:54:52;37.80;1.00
15937;DHT22;9163;48.818;8.976;2023-09-12T14:57:20;37.80;1.00
15937;DHT22;9163;48.818;8.976;2023-09-12T14:59:50;37.90;99.90
15937;DHT22;9163;48.818;8.976;2023-09-12T15:02:18;37.20;1.00
15937;DHT22;9163;48.818;8.976;2023-09-12T15:04:45;36.40;99.90
15937;DHT22;9163;48.818;8.976;2023-09-12T15:07:13;36.10;99.90
15937;DHT22;9163;48.818;8.976;2023-09-12T15:09:40;35.90;99.90
15937;DHT22;9163;48.818;8.976;2023-09-12T15:12:07;35.60;99.90
15937;DHT22;9163;48.818;8.976;2023-09-12T15:14:35;35.70;99.90
15937;DHT22;9163;48.818;8.976;2023-09-12T15:17:02;36.00;99.90
15937;DHT22;9163;48.818;8.976;2023-09-12T15:19:31;36.50;99.90
15937;DHT22;9163;48.818;8.976;2023-09-12T15:21:58;36.80;1.00
15937;DHT22;9163;48.818;8.976;2023-09-12T15:24:25;37.00;99.90
15937;DHT22;9163;48.818;8.976;2023-09-12T15:26:53;37.10;99.90
15937;DHT22;9163;48.818;8.976;2023-09-12T15:29:20;37.20;1.00
15937;DHT22;9163;48.818;8.976;2023-09-12T15:31:48;37.10;1.00
15937;DHT22;9163;48.818;8.976;2023-09-12T15:34:15;37.00;99.90
15937;DHT22;9163;48.818;8.976;2023-09-12T15:36:45;36.60;99.90
15937;DHT22;9163;48.818;8.976;2023-09-12T15:39:13;36.60;99.90
15937;DHT22;9163;48.818;8.976;2023-09-12T15:41:40;36.20;99.90
15937;DHT22;9163;48.818;8.976;2023-09-12T15:44:08;36.20;99.90
15937;DHT22;9163;48.818;8.976;2023-09-12T15:46:35;35.90;99.90
15937;DHT22;9163;48.818;8.976;2023-09-12T15:49:03;36.00;99.90
15937;DHT22;9163;48.818;8.976;2023-09-12T15:51:31;36.00;99.90
15937;DHT22;9163;48.818;8.976;2023-09-12T15:54:00;36.00;99.90
15937;DHT22;9163;48.818;8.976;2023-09-12T15:56:27;36.20;99.90
15937;DHT22;9163;48.818;8.976;2023-09-12T15:58:54;36.00;99.90
15937;DHT22;9163;48.818;8.976;2023-09-12T16:01:23;36.00;99.90